Time;durP1;ratioP1;P1;durP2;ratioP2;P2;SDS_P1;SDS_P2;PMS_P1;PMS_P2;Temp;Humidity;BMP_temperature;BMP_pressure;BME280_temperature;BME280_humidity;BME280_pressure;Samples;Min_cycle;Max_cycle;Signal;HPM_P1;HPM_P2
2023/08/21 00:01:04;;;;;;;12.97;7.70;;;25.60;75.20;;;;;;5027053;28;20480;-81
2023/08/21 00:03:32;;;;;;;12.37;8.37;;;25.60;75.20;;;;;;5030199;28;20464;-81
2023/08/21 00:06:01;;;;;;;11.23;7.67;;;25.60;75.10;;;;;;5030053;28;20464;-80
2023/08/21 00:08:29;;;;;;;12.47;7.90;;;25.50;75.10;;;;;;5023415;28;20492;-79
2023/08/21 00:10:57;;;;;;;13.13;8.70;;;25.50;75.10;;;;;;5020797;28;20482;-80
2023/08/21 00:13:26;;;;;;;11.73;7.73;;;25.50;75.20;;;;;;5029551;28;20816;-79
2023/08/21 00:15:55;;;;;;;14.43;8.47;;;25.50;75.20;;;;;;5021741;28;20460;-79
2023/08/21 00:18:24;;;;;;;14.63;8.27;;;25.40;75.30;;;;;;5020189;28;20452;-79
2023/08/21 00:20:52;;;;;;;14.37;8.53;;;25.40;75.40;;;;;;5024366;28;20853;-79
2023/08/21 00:23:21;;;;;;;12.47;8.37;;;25.40;75.40;;;;;;5026877;28;20451;-78
2023/08/21 00:25:49;;;;;;;14.20;7.60;;;25.40;75.50;;;;;;5024777;28;20461;-78
2023/08/21 00:28:17;;;;;;;11.43;8.40;;;25.40;75.40;;;;;;5032108;28;20817;-79
2023/08/21 00:30:46;;;;;;;11.33;8.20;;;25.40;75.40;;;;;;5036168;28;20479;-79
2023/08/21 00:33:14;;;;;;;14.47;8.40;;;25.30;75.40;;;;;;5023255;28;20505;-79
2023/08/21 00:35:44;;;;;;;13.23;8.20;;;25.30;75.50;;;;;;5022005;28;20459;-80
2023/08/21 00:38:12;;;;;;;14.57;8.43;;;25.30;75.50;;;;;;5029193;28;20461;-81
2023/08/21 00:40:40;;;;;;;13.10;8.47;;;25.30;75.60;;;;;;5027867;28;20471;-79
2023/08/21 00:43:08;;;;;;;13.63;9.17;;;25.30;75.60;;;;;;5034797;28;20478;-80
2023/08/21 00:45:38;;;;;;;14.33;9.50;;;25.20;75.60;;;;;;5026777;28;20456;-80
2023/08/21 00:48:07;;;;;;;16.87;8.37;;;25.20;75.70;;;;;;5057560;28;20456;-80
2023/08/21 00:50:35;;;;;;;13.57;9.17;;;25.20;75.70;;;;;;5029050;28;20954;-80
2023/08/21 00:53:05;;;;;;;18.10;9.17;;;25.20;75.70;;;;;;5025863;28;20562;-82
2023/08/21 00:55:34;;;;;;;13.27;8.60;;;25.10;75.80;;;;;;5033562;28;20824;-81
2023/08/21 00:58:04;;;;;;;13.73;8.53;;;25.10;75.90;;;;;;5026585;28;20447;-80
2023/08/21 01:00:34;;;;;;;13.07;8.43;;;25.10;76.00;;;;;;5031840;28;20967;-80
2023/08/21 01:03:03;;;;;;;13.03;8.43;;;25.10;76.00;;;;;;5032375;28;20459;-79
2023/08/21 01:05:31;;;;;;;13.67;8.50;;;25.10;75.80;;;;;;5031485;28;20455;-80
2023/08/21 01:08:06;;;;;;;10.90;8.20;;;25.10;75.80;;;;;;5035841;28;20550;-80
2023/08/21 01:10:43;;;;;;;11.80;8.20;;;25.00;75.80;;;;;;5028408;28;20454;-80
2023/08/21 01:13:20;;;;;;;13.07;8.23;;;25.00;75.80;;;;;;5031085;28;20470;-81
2023/08/21 01:15:51;;;;;;;14.27;9.73;;;25.00;75.90;;;;;;5027615;28;20486;-80
2023/08/21 01:18:22;;;;;;;12.40;8.50;;;25.00;75.90;;;;;;5022837;28;20487;-81
2023/08/21 01:20:51;;;;;;;14.37;9.47;;;24.90;76.00;;;;;;5033070;28;20489;-81
2023/08/21 01:23:36;;;;;;;15.20;9.33;;;24.90;76.10;;;;;;5028186;28;21307;-80
2023/08/21 01:26:05;;;;;;;14.73;8.70;;;24.90;76.20;;;;;;5019588;28;20471;-79
2023/08/21 01:28:34;;;;;;;14.43;8.60;;;24.90;76.30;;;;;;5024139;28;20610;-80
2023/08/21 01:31:09;;;;;;;12.53;8.70;;;24.90;76.30;;;;;;5030614;28;21001;-79
2023/08/21 01:33:43;;;;;;;11.73;8.90;;;24.90;76.40;;;;;;5026624;28;20479;-80
2023/08/21 01:36:12;;;;;;;15.50;10.13;;;24.90;76.50;;;;;;5026675;28;20510;-79
2023/08/21 01:38:42;;;;;;;12.63;9.10;;;24.80;76.50;;;;;;5034203;28;21305;-80
2023/08/21 01:41:12;;;;;;;16.10;10.40;;;24.80;76.50;;;;;;5036389;28;21009;-78
2023/08/21 01:43:40;;;;;;;14.27;9.20;;;24.80;76.50;;;;;;5021715;28;20453;-80
2023/08/21 01:46:10;;;;;;;15.37;10.13;;;24.80;76.50;;;;;;5027076;28;20463;-79
2023/08/21 01:48:38;;;;;;;16.80;9.00;;;24.80;76.50;;;;;;5023220;28;20447;-80
2023/08/21 01:55:19;;;;;;;12.77;8.93;;;24.70;76.50;;;;;;5022211;28;20774;-80
2023/08/21 01:57:49;;;;;;;15.37;9.30;;;24.70;76.60;;;;;;5023807;28;20522;-80
2023/08/21 02:00:18;;;;;;;11.87;8.50;;;24.70;76.50;;;;;;5013730;28;20462;-81
2023/08/21 02:02:47;;;;;;;14.70;8.90;;;24.60;76.60;;;;;;5030993;28;20459;-82
2023/08/21 02:05:15;;;;;;;14.57;9.20;;;24.60;76.60;;;;;;5030200;28;20455;-81
2023/08/21 02:07:43;;;;;;;15.77;9.27;;;24.60;76.60;;;;;;5024718;28;20460;-81
2023/08/21 02:10:11;;;;;;;12.83;9.00;;;24.60;76.60;;;;;;5033909;28;20517;-80
2023/08/21 02:12:41;;;;;;;17.27;9.43;;;24.60;76.60;;;;;;5025082;28;20558;-80
2023/08/21 02:15:11;;;;;;;15.93;9.77;;;24.60;76.50;;;;;;5025008;28;20480;-81
2023/08/21 02:17:42;;;;;;;20.00;10.10;;;24.50;76.60;;;;;;5025371;28;21114;-81
2023/08/21 02:20:12;;;;;;;14.20;10.13;;;24.50;76.60;;;;;;5032633;28;20460;-79
2023/08/21 02:22:42;;;;;;;16.63;9.90;;;24.50;76.70;;;;;;5021748;28;20479;-79
2023/08/21 02:25:11;;;;;;;13.07;9.80;;;24.40;76.80;;;;;;5037595;28;20487;-79
2023/08/21 02:27:40;;;;;;;15.33;9.80;;;24.40;76.80;;;;;;5050104;28;20477;-80
2023/08/21 02:30:09;;;;;;;16.53;10.00;;;24.40;76.90;;;;;;5015519;28;20553;-80
2023/08/21 02:32:38;;;;;;;13.93;9.77;;;24.40;76.90;;;;;;5019504;28;20462;-81
2023/08/21 02:35:07;;;;;;;19.53;10.63;;;24.40;77.00;;;;;;5019580;28;20948;-79
2023/08/21 02:37:38;;;;;;;13.60;9.40;;;24.40;77.00;;;;;;5022695;28;21036;-80
2023/08/21 02:40:09;;;;;;;13.30;9.67;;;24.40;77.00;;;;;;5022069;28;20965;-80
2023/08/21 02:42:37;;;;;;;13.90;9.30;;;24.40;76.90;;;;;;5023780;28;20584;-81
2023/08/21 02:45:09;;;;;;;12.43;9.30;;;24.40;76.90;;;;;;5025530;28;20875;-80
2023/08/21 02:47:38;;;;;;;16.57;9.87;;;24.30;76.90;;;;;;5024666;28;20550;-79
2023/08/21 02:50:08;;;;;;;16.10;9.73;;;24.30;76.90;;;;;;5030999;28;20447;-80
2023/08/21 02:52:39;;;;;;;13.40;9.40;;;24.30;76.90;;;;;;5029243;28;20537;-79
2023/08/21 02:55:08;;;;;;;18.20;10.10;;;24.30;77.00;;;;;;5020433;28;20856;-79
2023/08/21 02:57:36;;;;;;;13.57;10.43;;;24.30;77.00;;;;;;5032024;28;20537;-79
2023/08/21 03:00:07;;;;;;;13.67;10.07;;;24.30;77.10;;;;;;5020085;28;20464;-79
2023/08/21 03:02:37;;;;;;;14.43;10.20;;;24.30;77.00;;;;;;5020560;28;20581;-79
2023/08/21 03:05:06;;;;;;;17.13;9.43;;;24.20;77.00;;;;;;5021357;28;20518;-80
2023/08/21 03:07:36;;;;;;;15.03;10.20;;;24.20;76.90;;;;;;5015984;28;20465;-81
2023/08/21 03:10:04;;;;;;;16.87;10.20;;;24.20;77.00;;;;;;5023166;28;21100;-79
2023/08/21 03:12:32;;;;;;;15.50;10.70;;;24.20;77.10;;;;;;5024599;28;21126;-80
2023/08/21 03:15:00;;;;;;;16.67;10.67;;;24.20;77.10;;;;;;5021616;28;20455;-81
2023/08/21 03:17:29;;;;;;;16.70;11.20;;;24.20;77.20;;;;;;5024465;28;20522;-81
2023/08/21 03:19:58;;;;;;;18.03;10.50;;;24.20;77.40;;;;;;5017875;28;20553;-80
2023/08/21 03:22:26;;;;;;;14.60;10.13;;;24.20;77.50;;;;;;5021201;28;20475;-79
2023/08/21 03:24:54;;;;;;;15.50;10.57;;;24.20;77.50;;;;;;5038523;28;20451;-79
2023/08/21 03:27:23;;;;;;;14.60;10.00;;;24.10;77.60;;;;;;5032483;28;20459;-80
2023/08/21 03:29:51;;;;;;;14.97;9.60;;;24.10;77.60;;;;;;5024442;28;20495;-79
2023/08/21 03:32:19;;;;;;;16.17;9.70;;;24.10;77.50;;;;;;5005497;28;20545;-80
2023/08/21 03:34:47;;;;;;;13.47;10.20;;;24.10;77.50;;;;;;5009603;28;20568;-80
2023/08/21 03:37:17;;;;;;;16.20;10.27;;;24.10;77.50;;;;;;5006676;28;20832;-80
2023/08/21 03:39:45;;;;;;;17.87;10.30;;;24.10;77.50;;;;;;5008255;28;20461;-81
2023/08/21 03:42:13;;;;;;;16.30;9.90;;;24.10;77.40;;;;;;5014622;28;20904;-79
2023/08/21 03:44:41;;;;;;;13.70;9.93;;;24.10;77.40;;;;;;5008325;28;20820;-79
2023/08/21 03:47:09;;;;;;;18.93;9.90;;;24.00;77.30;;;;;;5004523;28;20457;-80
2023/08/21 03:49:48;;;;;;;13.23;10.73;;;24.00;77.30;;;;;;5010649;28;20461;-80
2023/08/21 03:52:18;;;;;;;15.43;12.07;;;24.00;77.30;;;;;;5011415;28;20547;-80
2023/08/21 03:54:46;;;;;;;14.50;11.27;;;24.00;77.40;;;;;;5006194;28;20464;-80
2023/08/21 03:57:15;;;;;;;16.57;10.47;;;23.90;77.50;;;;;;5003676;28;20457;-81
2023/08/21 03:59:43;;;;;;;17.43;11.37;;;23.90;77.50;;;;;;5005466;28;20520;-79
2023/08/21 04:02:11;;;;;;;26.20;11.20;;;23.90;77.60;;;;;;5025794;28;20487;-82
2023/08/21 04:04:39;;;;;;;16.30;10.20;;;23.90;77.60;;;;;;5028997;28;20891;-81
2023/08/21 04:07:07;;;;;;;15.93;10.07;;;23.80;77.60;;;;;;5031093;28;20461;-80
2023/08/21 04:09:36;;;;;;;14.60;9.90;;;23.80;77.60;;;;;;5023528;28;20480;-81
2023/08/21 04:12:05;;;;;;;14.97;11.43;;;23.80;77.60;;;;;;5029583;28;20935;-80
2023/08/21 04:14:33;;;;;;;18.73;9.60;;;23.80;77.60;;;;;;5030499;28;20452;-79
2023/08/21 04:17:01;;;;;;;13.70;10.37;;;23.80;77.70;;;;;;5030239;28;20451;-80
2023/08/21 04:19:32;;;;;;;14.47;9.70;;;23.80;77.70;;;;;;5038580;28;20474;-80
2023/08/21 04:22:00;;;;;;;16.03;10.10;;;23.80;77.80;;;;;;5029361;28;20492;-81
2023/08/21 04:24:28;;;;;;;20.50;9.57;;;23.80;77.80;;;;;;5027397;28;21157;-79
2023/08/21 04:26:58;;;;;;;15.67;10.50;;;23.80;77.80;;;;;;5031061;28;20478;-82
2023/08/21 04:29:26;;;;;;;20.23;10.60;;;23.80;77.80;;;;;;5030913;28;20462;-80
2023/08/21 04:31:54;;;;;;;16.03;10.97;;;23.80;77.70;;;;;;5029422;28;20714;-80
2023/08/21 04:34:23;;;;;;;12.87;9.57;;;23.80;77.70;;;;;;5030162;28;20464;-79
2023/08/21 04:36:52;;;;;;;17.53;9.73;;;23.80;77.70;;;;;;5032206;28;20467;-80
2023/08/21 04:39:20;;;;;;;15.60;10.40;;;23.80;77.70;;;;;;5028107;28;20984;-79
2023/08/21 04:41:48;;;;;;;16.13;10.37;;;23.80;77.60;;;;;;5031521;28;20463;-80
2023/08/21 04:44:19;;;;;;;18.33;10.10;;;23.70;77.70;;;;;;5029559;28;20953;-80
2023/08/21 04:46:49;;;;;;;18.80;10.50;;;23.70;77.70;;;;;;5032935;28;20550;-80
2023/08/21 04:49:17;;;;;;;18.23;10.87;;;23.80;77.70;;;;;;5026773;28;20467;-80
2023/08/21 04:51:46;;;;;;;19.77;10.93;;;23.70;77.70;;;;;;5027127;28;20948;-79
2023/08/21 04:54:14;;;;;;;15.27;10.37;;;23.70;77.60;;;;;;5031262;28;20455;-79
2023/08/21 04:56:41;;;;;;;16.30;11.13;;;23.70;77.60;;;;;;5030594;28;20455;-79
2023/08/21 04:59:12;;;;;;;16.47;10.50;;;23.70;77.60;;;;;;5029972;28;20495;-80
2023/08/21 05:01:43;;;;;;;15.30;9.57;;;23.80;77.80;;;;;;5031513;28;20570;-79
2023/08/21 05:04:13;;;;;;;16.70;10.83;;;23.90;78.10;;;;;;5033983;28;20452;-79
2023/08/21 05:06:41;;;;;;;15.20;10.00;;;24.20;78.10;;;;;;5022162;28;20464;-79
2023/08/21 05:09:08;;;;;;;16.10;9.53;;;24.60;77.60;;;;;;5026863;28;20887;-80
2023/08/21 05:11:37;;;;;;;19.60;10.73;;;25.10;76.90;;;;;;5046122;28;20473;-78
2023/08/21 05:14:06;;;;;;;12.60;9.43;;;25.60;76.10;;;;;;5026416;28;20557;-80
2023/08/21 05:16:34;;;;;;;14.20;9.83;;;26.10;75.40;;;;;;5030398;28;20475;-79
2023/08/21 05:19:03;;;;;;;13.60;9.17;;;26.50;74.70;;;;;;5031605;28;21404;-80
2023/08/21 05:21:32;;;;;;;15.20;9.77;;;27.00;74.10;;;;;;5016859;28;20965;-79
2023/08/21 05:24:00;;;;;;;13.87;9.30;;;27.50;73.60;;;;;;5020584;28;20540;-79
2023/08/21 05:26:30;;;;;;;11.97;9.10;;;28.00;72.90;;;;;;5026188;28;20869;-79
2023/08/21 05:28:58;;;;;;;16.27;9.50;;;28.50;72.20;;;;;;5040251;28;20877;-79
2023/08/21 05:31:26;;;;;;;13.03;9.27;;;29.00;71.40;;;;;;5025124;28;20463;-79
2023/08/21 05:33:55;;;;;;;15.90;8.90;;;29.50;70.20;;;;;;5024740;28;20547;-80
2023/08/21 05:36:24;;;;;;;16.40;9.43;;;29.80;69.70;;;;;;5029760;28;20545;-80
2023/08/21 05:38:52;;;;;;;17.93;8.63;;;30.40;68.80;;;;;;5028724;28;20490;-80
2023/08/21 05:41:20;;;;;;;11.97;8.80;;;30.90;67.80;;;;;;5025550;28;20551;-80
2023/08/21 05:43:48;;;;;;;17.87;9.20;;;31.50;66.70;;;;;;5028971;28;20475;-80
2023/08/21 05:46:17;;;;;;;13.43;9.20;;;32.00;65.60;;;;;;5031958;28;20466;-80
2023/08/21 05:48:45;;;;;;;13.30;8.70;;;32.60;64.60;;;;;;5033798;28;20495;-79
2023/08/21 05:51:13;;;;;;;19.03;9.90;;;33.10;63.60;;;;;;5034123;28;20522;-80
2023/08/21 05:53:42;;;;;;;14.67;9.77;;;33.40;62.00;;;;;;5024075;28;20547;-80
2023/08/21 05:56:10;;;;;;;15.63;10.37;;;32.70;61.10;;;;;;5031433;28;20486;-80
2023/08/21 05:58:38;;;;;;;20.40;9.57;;;31.70;61.70;;;;;;5031140;28;20457;-79
2023/08/21 06:01:08;;;;;;;16.83;9.50;;;30.60;62.70;;;;;;5033464;28;20472;-79
2023/08/21 06:03:36;;;;;;;18.63;10.03;;;29.60;63.90;;;;;;5026082;28;20488;-78
2023/08/21 06:06:10;;;;;;;19.37;10.83;;;28.80;65.20;;;;;;5028337;28;20651;-80
2023/08/21 06:08:41;;;;;;;20.80;12.20;;;28.10;66.30;;;;;;5026806;28;21021;-79
2023/08/21 06:11:10;;;;;;;16.60;10.40;;;27.50;67.30;;;;;;5033419;28;20549;-77
2023/08/21 06:13:38;;;;;;;21.43;11.60;;;27.10;68.20;;;;;;5030744;28;20498;-80
2023/08/21 06:16:06;;;;;;;16.40;11.20;;;26.80;68.90;;;;;;5022155;28;20463;-78
2023/08/21 06:18:37;;;;;;;21.97;12.33;;;26.60;69.60;;;;;;5023078;28;21618;-81
2023/08/21 06:21:05;;;;;;;21.40;12.87;;;26.40;70.20;;;;;;5026146;28;20493;-80
2023/08/21 06:23:33;;;;;;;18.73;12.47;;;26.20;70.70;;;;;;5025398;28;20568;-78
2023/08/21 06:26:03;;;;;;;18.43;11.10;;;26.10;71.20;;;;;;5025909;28;20464;-77
2023/08/21 06:28:31;;;;;;;17.40;12.10;;;26.00;71.60;;;;;;5026659;28;20547;-79
2023/08/21 06:31:03;;;;;;;19.40;11.20;;;25.80;72.00;;;;;;5022994;28;20544;-77
2023/08/21 06:33:33;;;;;;;21.03;13.67;;;25.80;72.50;;;;;;5023188;28;20456;-81
2023/08/21 06:36:01;;;;;;;19.60;11.63;;;25.70;72.80;;;;;;5022830;28;20514;-79
2023/08/21 06:38:29;;;;;;;18.50;12.80;;;25.60;73.30;;;;;;5037923;28;20546;-80
2023/08/21 06:40:57;;;;;;;21.13;13.63;;;25.60;73.60;;;;;;5029461;28;20499;-79
2023/08/21 06:43:27;;;;;;;19.10;12.87;;;25.50;73.90;;;;;;5023525;28;20510;-79
2023/08/21 06:45:57;;;;;;;19.70;12.20;;;25.50;74.30;;;;;;5025461;28;20519;-78
2023/08/21 06:48:25;;;;;;;19.13;14.00;;;25.50;74.40;;;;;;5027231;28;20458;-80
2023/08/21 06:50:53;;;;;;;16.30;13.10;;;25.40;74.70;;;;;;5022479;28;20464;-78
2023/08/21 06:53:21;;;;;;;17.63;13.00;;;25.40;75.00;;;;;;5026284;28;20538;-79
2023/08/21 06:55:49;;;;;;;18.00;13.17;;;25.40;75.30;;;;;;5026893;28;20491;-79
2023/08/21 06:58:18;;;;;;;18.40;13.43;;;25.40;75.50;;;;;;5029818;28;20455;-79
2023/08/21 07:00:47;;;;;;;22.27;13.30;;;25.50;75.80;;;;;;5022419;28;20467;-79
2023/08/21 07:03:15;;;;;;;25.13;14.30;;;25.50;75.90;;;;;;5030172;28;20997;-78
2023/08/21 07:05:48;;;;;;;21.83;14.20;;;25.50;76.10;;;;;;5022639;28;20479;-78
2023/08/21 07:08:15;;;;;;;22.47;12.77;;;25.60;76.30;;;;;;5024540;28;20469;-78
2023/08/21 07:10:44;;;;;;;15.77;13.50;;;25.60;76.30;;;;;;5027255;28;20541;-78
2023/08/21 07:13:12;;;;;;;18.23;13.63;;;25.70;76.40;;;;;;5024923;28;20526;-78
2023/08/21 07:15:39;;;;;;;19.13;13.53;;;25.70;76.60;;;;;;5021016;28;20540;-79
2023/08/21 07:18:09;;;;;;;21.70;13.93;;;25.70;76.60;;;;;;5023660;28;20455;-79
2023/08/21 07:20:37;;;;;;;17.10;12.80;;;25.80;76.80;;;;;;5027265;28;20465;-79
2023/08/21 07:23:06;;;;;;;16.93;13.03;;;25.80;76.80;;;;;;5029230;28;20466;-80
2023/08/21 07:25:34;;;;;;;20.63;13.97;;;25.90;76.80;;;;;;5023009;28;20867;-79
2023/08/21 07:28:01;;;;;;;17.93;13.67;;;26.00;76.90;;;;;;5024801;28;20459;-79
2023/08/21 07:30:29;;;;;;;18.87;13.00;;;26.00;76.90;;;;;;5026199;28;20498;-79
2023/08/21 07:32:59;;;;;;;17.57;14.00;;;26.10;77.00;;;;;;5026873;28;21029;-80
2023/08/21 07:35:28;;;;;;;19.70;14.43;;;26.10;77.10;;;;;;5027496;28;20451;-78
2023/08/21 07:37:56;;;;;;;20.83;15.20;;;26.10;77.20;;;;;;5019832;28;20459;-78
2023/08/21 07:40:25;;;;;;;20.80;15.10;;;26.10;77.20;;;;;;5028176;28;20455;-79
2023/08/21 07:42:53;;;;;;;16.43;14.00;;;26.20;77.30;;;;;;5026853;28;20546;-78
2023/08/21 07:45:21;;;;;;;17.13;13.80;;;26.20;77.30;;;;;;5020138;28;20562;-78
2023/08/21 07:47:49;;;;;;;22.93;14.93;;;26.20;77.40;;;;;;5023537;28;20452;-80
2023/08/21 07:50:37;;;;;;;22.80;14.93;;;26.30;77.40;;;;;;5020438;28;20455;-77
2023/08/21 07:53:05;;;;;;;25.40;15.50;;;26.30;77.40;;;;;;5022964;28;21257;-79
2023/08/21 07:55:33;;;;;;;24.07;15.47;;;26.30;77.50;;;;;;5021020;28;20846;-78
2023/08/21 07:58:01;;;;;;;22.83;14.90;;;26.30;77.50;;;;;;5021770;28;20447;-78
2023/08/21 08:00:29;;;;;;;19.43;14.17;;;26.30;77.50;;;;;;5021411;28;20473;-77
2023/08/21 08:02:57;;;;;;;21.13;15.00;;;26.40;77.50;;;;;;5031017;28;21103;-77
2023/08/21 08:05:25;;;;;;;19.90;15.50;;;26.40;77.50;;;;;;5020634;28;20567;-77
2023/08/21 08:07:54;;;;;;;17.83;14.07;;;26.50;77.60;;;;;;5025189;28;21110;-80
2023/08/21 08:10:22;;;;;;;21.33;15.40;;;26.50;77.60;;;;;;5022645;28;20476;-77
2023/08/21 08:12:50;;;;;;;19.47;14.53;;;26.50;77.60;;;;;;5029357;28;20558;-78
2023/08/21 08:15:19;;;;;;;20.23;14.90;;;26.50;77.60;;;;;;5026045;28;20452;-82
2023/08/21 08:17:51;;;;;;;19.20;14.57;;;26.60;77.60;;;;;;5023813;28;20466;-79
2023/08/21 08:20:20;;;;;;;18.47;15.17;;;26.60;77.50;;;;;;5023378;28;20456;-78
2023/08/21 08:22:47;;;;;;;20.67;14.80;;;26.60;77.40;;;;;;5021898;28;20465;-78
2023/08/21 08:25:17;;;;;;;21.83;17.60;;;26.70;77.50;;;;;;5024162;28;20480;-78
2023/08/21 08:27:46;;;;;;;19.53;16.00;;;26.70;77.60;;;;;;5019185;28;20478;-78
2023/08/21 08:30:14;;;;;;;23.80;15.80;;;26.70;77.60;;;;;;5022480;28;20455;-81
2023/08/21 08:32:44;;;;;;;22.37;17.33;;;26.80;77.60;;;;;;5022928;28;20957;-79
2023/08/21 08:35:14;;;;;;;21.80;16.20;;;26.80;77.70;;;;;;5016676;28;20456;-77
2023/08/21 08:37:42;;;;;;;19.83;15.80;;;26.80;77.70;;;;;;5026165;28;20446;-78
2023/08/21 08:40:12;;;;;;;22.80;16.47;;;26.80;77.80;;;;;;5025488;28;20556;-80
2023/08/21 08:42:41;;;;;;;19.47;15.93;;;26.90;77.80;;;;;;5016098;28;20474;-81
2023/08/21 08:45:14;;;;;;;23.30;16.80;;;27.00;77.70;;;;;;5015776;28;20471;-78
2023/08/21 08:47:42;;;;;;;22.87;16.93;;;27.00;77.60;;;;;;5023177;28;20451;-78
2023/08/21 08:50:12;;;;;;;22.67;17.97;;;27.00;77.50;;;;;;5024387;28;20444;-80
2023/08/21 08:52:42;;;;;;;25.10;18.10;;;27.10;77.50;;;;;;5022618;28;20953;-80
2023/08/21 08:55:11;;;;;;;22.43;18.40;;;27.10;77.50;;;;;;5021916;28;20467;-80
2023/08/21 08:57:39;;;;;;;21.53;17.03;;;27.10;77.60;;;;;;5027501;28;20451;-80
2023/08/21 09:00:10;;;;;;;21.10;16.23;;;27.20;77.50;;;;;;5017282;28;20550;-79
2023/08/21 09:02:39;;;;;;;20.80;17.53;;;27.30;77.40;;;;;;5027737;28;20461;-78
2023/08/21 09:05:10;;;;;;;19.97;17.83;;;27.30;77.30;;;;;;5023491;28;20467;-80
2023/08/21 09:07:39;;;;;;;22.87;17.87;;;27.40;77.20;;;;;;5024433;28;21009;-82
2023/08/21 09:10:14;;;;;;;20.93;16.17;;;27.50;77.00;;;;;;5022473;28;20531;-81
2023/08/21 09:12:45;;;;;;;23.60;17.43;;;27.50;76.90;;;;;;5021341;28;20472;-81
2023/08/21 09:15:14;;;;;;;19.70;16.37;;;27.50;76.90;;;;;;5027291;28;21085;-80
2023/08/21 09:17:42;;;;;;;23.50;17.33;;;27.60;76.80;;;;;;5027128;28;20461;-80
2023/08/21 09:20:12;;;;;;;25.70;18.57;;;27.60;76.70;;;;;;5023915;28;20784;-80
2023/08/21 09:22:40;;;;;;;20.50;15.80;;;27.70;76.60;;;;;;5020505;28;20462;-78
2023/08/21 09:25:10;;;;;;;19.80;16.57;;;27.80;76.40;;;;;;5024907;28;20527;-79
2023/08/21 09:27:40;;;;;;;19.03;16.33;;;27.80;76.20;;;;;;5019230;28;20525;-82
2023/08/21 09:30:14;;;;;;;17.60;14.73;;;27.90;76.00;;;;;;5023854;28;20473;-78
2023/08/21 09:33:00;;;;;;;17.33;13.60;;;27.90;75.60;;;;;;5023654;28;20451;-80
2023/08/21 09:35:29;;;;;;;19.27;14.33;;;27.90;75.10;;;;;;5030307;28;20954;-79
2023/08/21 09:37:57;;;;;;;17.97;14.07;;;28.00;75.10;;;;;;5025874;28;20462;-79
2023/08/21 09:40:25;;;;;;;15.27;12.03;;;28.00;74.90;;;;;;5021432;28;20488;-78
2023/08/21 09:42:54;;;;;;;19.97;10.80;;;28.10;74.80;;;;;;5021819;28;20555;-81
2023/08/21 09:45:23;;;;;;;15.10;9.93;;;28.10;74.50;;;;;;5021901;28;20471;-81
2023/08/21 09:47:52;;;;;;;13.20;9.23;;;28.20;74.10;;;;;;5028466;28;20574;-81
2023/08/21 09:50:23;;;;;;;16.77;9.47;;;28.20;73.70;;;;;;5027664;28;20464;-79
2023/08/21 09:52:52;;;;;;;15.33;9.57;;;28.30;73.30;;;;;;5028527;28;20468;-79
2023/08/21 09:55:22;;;;;;;16.33;10.10;;;28.30;73.20;;;;;;5026750;28;20455;-80
2023/08/21 09:57:58;;;;;;;14.20;10.40;;;28.30;72.80;;;;;;5024186;28;20470;-78
2023/08/21 10:00:31;;;;;;;14.50;9.57;;;28.40;72.30;;;;;;5025893;28;20989;-80
2023/08/21 10:03:03;;;;;;;14.27;9.70;;;28.40;71.80;;;;;;5030951;28;21011;-80
2023/08/21 10:05:34;;;;;;;14.47;9.50;;;28.40;71.60;;;;;;5027739;28;20515;-78
2023/08/21 10:08:03;;;;;;;14.50;8.83;;;28.40;71.60;;;;;;5022994;28;20494;-79
2023/08/21 10:10:37;;;;;;;13.07;8.30;;;28.50;71.40;;;;;;5023526;28;20491;-81
2023/08/21 10:17:13;;;;;;;15.17;6.90;;;28.60;70.80;;;;;;5025400;28;20426;-78
2023/08/21 10:19:41;;;;;;;13.67;8.80;;;28.60;70.20;;;;;;5021733;28;21173;-81
2023/08/21 10:22:11;;;;;;;14.13;8.53;;;28.60;70.00;;;;;;5023652;28;20470;-81
2023/08/21 10:24:39;;;;;;;13.73;8.00;;;28.60;69.90;;;;;;5027139;28;20525;-80
2023/08/21 10:27:07;;;;;;;8.93;7.03;;;28.70;69.60;;;;;;5029166;28;20460;-79
2023/08/21 10:29:36;;;;;;;9.40;6.60;;;28.70;69.20;;;;;;5026170;28;20550;-81
2023/08/21 10:32:05;;;;;;;12.50;5.93;;;28.80;68.70;;;;;;5021864;28;20930;-80
2023/08/21 10:34:37;;;;;;;8.40;6.33;;;28.80;67.90;;;;;;5020392;28;21037;-81
2023/08/21 10:37:09;;;;;;;16.27;7.40;;;28.80;67.50;;;;;;5027637;28;20525;-80
2023/08/21 10:39:42;;;;;;;13.37;7.03;;;28.90;67.30;;;;;;5025909;28;20538;-79
2023/08/21 10:42:13;;;;;;;11.17;6.50;;;28.90;67.20;;;;;;5028471;28;20478;-78
2023/08/21 10:44:51;;;;;;;10.00;7.33;;;28.90;67.10;;;;;;5017976;28;20469;-79
2023/08/21 10:47:22;;;;;;;13.73;7.83;;;29.00;66.80;;;;;;5024660;28;20418;-79
2023/08/21 10:49:53;;;;;;;10.90;7.53;;;29.00;66.60;;;;;;5031747;28;20452;-79
2023/08/21 10:52:23;;;;;;;8.70;6.10;;;29.00;66.40;;;;;;5031163;28;20464;-79
2023/08/21 10:54:54;;;;;;;11.10;6.80;;;29.10;66.30;;;;;;5027971;28;20462;-78
2023/08/21 10:57:24;;;;;;;10.60;6.57;;;29.10;66.00;;;;;;5037881;28;20464;-78
2023/08/21 10:59:54;;;;;;;12.00;7.60;;;29.10;66.00;;;;;;5027502;28;20546;-80
2023/08/21 11:02:22;;;;;;;16.20;7.20;;;29.20;65.90;;;;;;5023889;28;21080;-79
2023/08/21 11:04:51;;;;;;;10.60;6.93;;;29.20;65.70;;;;;;5027012;28;20543;-80
2023/08/21 11:07:20;;;;;;;12.30;7.10;;;29.20;65.80;;;;;;5028371;28;20486;-77
2023/08/21 11:09:49;;;;;;;12.43;7.10;;;29.30;65.80;;;;;;5029622;28;20499;-79
2023/08/21 11:12:20;;;;;;;8.50;6.10;;;29.30;65.60;;;;;;5026214;28;20566;-80
2023/08/21 11:14:49;;;;;;;9.00;6.27;;;29.30;65.20;;;;;;5027776;28;20584;-79
2023/08/21 11:17:18;;;;;;;10.40;6.60;;;29.30;65.20;;;;;;5020100;28;20502;-79
2023/08/21 11:19:48;;;;;;;14.23;8.60;;;29.40;65.00;;;;;;5019140;28;20510;-78
2023/08/21 11:22:17;;;;;;;13.60;7.07;;;29.40;64.70;;;;;;5029042;28;20454;-80
2023/08/21 11:24:47;;;;;;;8.30;5.97;;;29.40;64.60;;;;;;5021877;28;20465;-79
2023/08/21 11:27:16;;;;;;;12.60;5.93;;;29.40;64.20;;;;;;5020373;28;20511;-80
2023/08/21 11:29:47;;;;;;;13.10;7.93;;;29.50;64.00;;;;;;5024458;28;20498;-80
2023/08/21 11:32:17;;;;;;;30.00;11.77;;;29.50;64.00;;;;;;5024260;28;20492;-79
2023/08/21 11:34:49;;;;;;;17.00;8.90;;;29.50;64.10;;;;;;5024888;28;21032;-79
2023/08/21 11:37:18;;;;;;;9.70;6.33;;;29.50;64.20;;;;;;5024516;28;20467;-79
2023/08/21 11:39:48;;;;;;;10.73;5.20;;;29.60;63.90;;;;;;5029729;28;21215;-80
2023/08/21 11:42:17;;;;;;;12.00;6.40;;;29.60;63.40;;;;;;5025025;28;20521;-79
2023/08/21 11:44:48;;;;;;;11.47;6.73;;;29.60;63.30;;;;;;5024371;28;20455;-81
2023/08/21 11:47:17;;;;;;;9.57;4.97;;;29.60;63.50;;;;;;5020629;28;20581;-79
2023/08/21 11:49:48;;;;;;;8.03;5.20;;;29.70;63.30;;;;;;5029959;28;20447;-81
2023/08/21 11:52:20;;;;;;;7.47;4.90;;;29.80;63.00;;;;;;5020473;28;20443;-78
2023/08/21 11:54:50;;;;;;;8.03;4.73;;;29.90;62.60;;;;;;5020218;28;20547;-79
2023/08/21 11:57:19;;;;;;;9.50;4.80;;;29.90;62.50;;;;;;5024981;28;20792;-80
2023/08/21 11:59:52;;;;;;;11.33;5.70;;;30.00;62.20;;;;;;5021145;28;20538;-79
2023/08/21 12:02:24;;;;;;;8.80;5.60;;;30.00;61.90;;;;;;5023775;28;20468;-77
2023/08/21 12:04:55;;;;;;;9.93;5.00;;;30.10;61.30;;;;;;5020662;28;20471;-79
2023/08/21 12:07:23;;;;;;;8.00;5.40;;;30.10;61.30;;;;;;5023385;28;20479;-78
2023/08/21 12:09:51;;;;;;;8.83;5.00;;;30.10;61.50;;;;;;5018317;28;20526;-80
2023/08/21 12:12:19;;;;;;;12.53;5.70;;;30.10;61.60;;;;;;5022357;28;21022;-81
2023/08/21 12:14:47;;;;;;;9.23;5.40;;;30.20;61.70;;;;;;5022542;28;20958;-80
2023/08/21 12:17:17;;;;;;;9.77;5.90;;;30.30;61.80;;;;;;5025266;28;20460;-81
2023/08/21 12:19:45;;;;;;;8.30;5.40;;;30.40;61.70;;;;;;5016899;28;20563;-77
2023/08/21 12:22:13;;;;;;;10.43;5.77;;;30.40;61.60;;;;;;5021483;28;20447;-79
2023/08/21 12:24:41;;;;;;;8.83;5.40;;;30.40;61.30;;;;;;5049458;28;20471;-77
2023/08/21 12:27:09;;;;;;;9.40;5.90;;;30.40;61.00;;;;;;5019715;28;20479;-79
2023/08/21 12:29:37;;;;;;;10.97;5.40;;;30.40;60.90;;;;;;5021401;28;20458;-79
2023/08/21 12:32:05;;;;;;;9.63;5.57;;;30.40;60.80;;;;;;5022758;28;20507;-79
2023/08/21 12:34:35;;;;;;;9.60;5.30;;;30.40;60.50;;;;;;5029152;28;21026;-79
2023/08/21 12:37:03;;;;;;;8.60;5.67;;;30.40;60.40;;;;;;5024720;28;20875;-79
2023/08/21 12:39:31;;;;;;;11.63;5.47;;;30.50;60.30;;;;;;5024044;28;20459;-79
2023/08/21 12:41:59;;;;;;;8.50;5.37;;;30.50;60.10;;;;;;5024835;28;20472;-78
2023/08/21 12:44:30;;;;;;;12.67;6.63;;;30.50;60.00;;;;;;5026419;28;20454;-78
2023/08/21 12:47:03;;;;;;;10.00;6.17;;;30.50;60.10;;;;;;5026553;28;20471;-79
2023/08/21 12:49:33;;;;;;;8.33;6.07;;;30.50;60.30;;;;;;5021642;28;20579;-78
2023/08/21 12:52:04;;;;;;;9.40;6.07;;;30.60;60.00;;;;;;5034243;28;20468;-79